Time;durP1;ratioP1;P1;durP2;ratioP2;P2;SDS_P1;SDS_P2;PMS_P1;PMS_P2;Temp;Humidity;BMP_temperature;BMP_pressure;BME280_temperature;BME280_humidity;BME280_pressure;Samples;Min_cycle;Max_cycle;Signal;HPM_P1;HPM_P2
2022/11/21 12:58:14;;;;;;;18.55;6.05;;;;;;;;;;4878462;29;20101;-83
2022/11/21 13:00:55;;;;;;;10.10;5.38;;;;;;;;;;4849377;29;20260;-84
2022/11/21 13:03:22;;;;;;;13.07;5.38;;;;;;;;;;4859805;29;20156;-81
2022/11/21 13:05:50;;;;;;;14.63;5.28;;;;;;;;;;4853076;29;20085;-81
2022/11/21 13:08:18;;;;;;;16.13;5.80;;;;;;;;;;4866657;29;20092;-81
2022/11/21 13:11:57;;;;;;;13.80;5.97;;;;;;;;;;4847494;29;20062;-82
2022/11/21 13:13:43;;;;;;;13.18;6.10;;;;;;;;;;4864447;29;20093;-82
2022/11/21 13:16:14;;;;;;;17.20;7.13;;;;;;;;;;4851687;29;20069;-81
2022/11/21 13:18:43;;;;;;;13.90;6.47;;;;;;;;;;4866483;29;20077;-82
2022/11/21 13:21:28;;;;;;;15.30;6.75;;;;;;;;;;4857844;29;20061;-81
2022/11/21 13:23:54;;;;;;;14.95;6.65;;;;;;;;;;4854900;29;20057;-81
2022/11/21 13:26:23;;;;;;;15.73;7.28;;;;;;;;;;4843924;29;20434;-83
2022/11/21 13:28:52;;;;;;;12.88;7.10;;;;;;;;;;4856431;29;20057;-80
2022/11/21 13:31:29;;;;;;;13.38;7.15;;;;;;;;;;4870196;29;20061;-79
2022/11/21 13:33:55;;;;;;;12.57;6.85;;;;;;;;;;4858183;29;20056;-80
2022/11/21 13:36:28;;;;;;;14.90;6.50;;;;;;;;;;4853073;29;20057;-79
2022/11/21 13:38:57;;;;;;;13.77;6.60;;;;;;;;;;4852300;29;20452;-81
2022/11/21 13:44:32;;;;;;;15.73;6.70;;;;;;;;;;4858974;29;21124;-80
2022/11/21 13:47:14;;;;;;;15.65;6.30;;;;;;;;;;4870310;29;20057;-81
2022/11/21 13:49:40;;;;;;;15.20;6.35;;;;;;;;;;4869003;29;21010;-81
2022/11/21 13:52:18;;;;;;;14.38;6.80;;;;;;;;;;4873409;29;20607;-81
2022/11/21 13:55:03;;;;;;;17.40;6.47;;;;;;;;;;4874077;29;20178;-81
2022/11/21 13:57:41;;;;;;;17.23;7.53;;;;;;;;;;4857651;29;20057;-83
2022/11/21 14:00:21;;;;;;;19.75;7.47;;;;;;;;;;4867034;29;21127;-79
2022/11/21 14:02:48;;;;;;;20.67;7.57;;;;;;;;;;4882022;29;20054;-80
2022/11/21 14:05:17;;;;;;;18.02;7.88;;;;;;;;;;4881813;29;20488;-79
2022/11/21 14:07:44;;;;;;;16.23;7.07;;;;;;;;;;4883399;29;20061;-78
2022/11/21 14:10:19;;;;;;;14.32;7.60;;;;;;;;;;4864494;29;20068;-78
2022/11/21 14:12:49;;;;;;;18.80;7.75;;;;;;;;;;4880854;29;20140;-78
2022/11/21 14:15:31;;;;;;;20.67;7.50;;;;;;;;;;4872986;29;20059;-78
2022/11/21 14:17:58;;;;;;;19.88;7.20;;;;;;;;;;4862322;29;20691;-79
2022/11/21 14:20:30;;;;;;;17.17;7.32;;;;;;;;;;4864284;29;20543;-79
2022/11/21 14:22:56;;;;;;;17.67;7.55;;;;;;;;;;4878812;29;20144;-78
2022/11/21 14:25:49;;;;;;;17.23;7.47;;;;;;;;;;4883217;29;20063;-79
2022/11/21 14:28:21;;;;;;;15.48;7.47;;;;;;;;;;4846831;29;21054;-79
2022/11/21 14:30:54;;;;;;;17.45;8.45;;;;;;;;;;4871114;29;20057;-79
2022/11/21 14:33:20;;;;;;;16.60;8.32;;;;;;;;;;4884051;29;20152;-79
2022/11/21 14:35:48;;;;;;;15.43;7.45;;;;;;;;;;4867041;29;20517;-79
2022/11/21 14:38:14;;;;;;;18.15;8.48;;;;;;;;;;4883073;29;20105;-80
2022/11/21 14:40:41;;;;;;;15.88;8.15;;;;;;;;;;4884655;29;20061;-80
2022/11/21 14:43:26;;;;;;;16.17;7.57;;;;;;;;;;4881683;29;20587;-79
2022/11/21 14:45:52;;;;;;;20.02;7.97;;;;;;;;;;4881317;29;20057;-79
2022/11/21 14:48:24;;;;;;;15.75;6.93;;;;;;;;;;4888772;29;20068;-79
2022/11/21 14:50:50;;;;;;;16.85;7.75;;;;;;;;;;4870891;29;20057;-80
2022/11/21 14:53:16;;;;;;;18.05;7.65;;;;;;;;;;4881890;29;20069;-80
2022/11/21 14:55:47;;;;;;;16.42;7.70;;;;;;;;;;4885195;29;20076;-80
2022/11/21 14:58:15;;;;;;;16.17;6.93;;;;;;;;;;4871388;29;20113;-79
2022/11/21 15:00:59;;;;;;;17.02;6.82;;;;;;;;;;4869813;29;20668;-79
2022/11/21 15:03:27;;;;;;;15.25;7.03;;;;;;;;;;4867748;29;20092;-80
2022/11/21 15:05:58;;;;;;;20.70;7.43;;;;;;;;;;4852297;29;20609;-80
2022/11/21 15:08:33;;;;;;;17.15;6.95;;;;;;;;;;4851624;29;23473;-79
2022/11/21 15:11:20;;;;;;;17.95;7.22;;;;;;;;;;4860256;29;20084;-79
2022/11/21 15:13:49;;;;;;;19.90;7.95;;;;;;;;;;4851584;29;20054;-79
2022/11/21 15:16:36;;;;;;;17.90;7.20;;;;;;;;;;4868349;29;20058;-79
2022/11/21 15:19:08;;;;;;;15.10;7.05;;;;;;;;;;4877004;29;20059;-79
2022/11/21 15:21:34;;;;;;;16.20;7.43;;;;;;;;;;4853279;29;20068;-79
2022/11/21 15:24:38;;;;;;;19.05;7.38;;;;;;;;;;4867833;29;20536;-79
2022/11/21 15:27:23;;;;;;;16.02;7.43;;;;;;;;;;4810865;29;20058;-79
2022/11/21 15:29:59;;;;;;;20.38;8.00;;;;;;;;;;4867360;29;20054;-79
2022/11/21 15:32:26;;;;;;;17.48;7.72;;;;;;;;;;4853780;29;20575;-79
2022/11/21 15:34:52;;;;;;;25.90;8.85;;;;;;;;;;4858443;29;20065;-79
2022/11/21 15:37:19;;;;;;;17.00;7.53;;;;;;;;;;4871080;29;20525;-79
2022/11/21 15:39:50;;;;;;;18.02;7.40;;;;;;;;;;4872159;29;20121;-79
2022/11/21 15:42:16;;;;;;;;;;;;;;;;;;4870022;29;20092;-79
2022/11/21 15:44:57;;;;;;;19.98;7.45;;;;;;;;;;4852776;29;48448;-80
2022/11/21 15:47:23;;;;;;;20.48;7.43;;;;;;;;;;4861186;29;20064;-79
2022/11/21 15:49:50;;;;;;;15.30;8.18;;;;;;;;;;4870922;29;20065;-79
2022/11/21 15:52:19;;;;;;;23.00;8.38;;;;;;;;;;4863281;29;20900;-80
2022/11/21 15:54:47;;;;;;;20.17;8.20;;;;;;;;;;4842469;29;20073;-79
2022/11/21 15:57:13;;;;;;;19.10;8.73;;;;;;;;;;4869496;29;20054;-79
2022/11/21 15:59:42;;;;;;;21.20;8.95;;;;;;;;;;4857435;29;20821;-79
2022/11/21 16:02:11;;;;;;;19.20;8.85;;;;;;;;;;4858742;29;20065;-79
2022/11/21 16:04:37;;;;;;;22.27;8.95;;;;;;;;;;4846517;29;20142;-79
2022/11/21 16:07:03;;;;;;;20.42;8.45;;;;;;;;;;4851433;29;20232;-79
2022/11/21 16:09:30;;;;;;;20.02;8.85;;;;;;;;;;4850091;29;20102;-79
2022/11/21 16:11:56;;;;;;;21.00;8.57;;;;;;;;;;4853099;29;20062;-78
2022/11/21 16:14:23;;;;;;;14.90;8.05;;;;;;;;;;4850986;29;20168;-78
2022/11/21 16:16:49;;;;;;;19.17;8.45;;;;;;;;;;4852985;29;20064;-79
2022/11/21 16:19:16;;;;;;;22.35;8.63;;;;;;;;;;4853416;29;20455;-79
2022/11/21 16:21:42;;;;;;;18.27;8.65;;;;;;;;;;4845817;29;20662;-79
2022/11/21 16:24:09;;;;;;;16.42;7.93;;;;;;;;;;4853431;29;20145;-78
2022/11/21 16:26:35;;;;;;;19.83;8.15;;;;;;;;;;4850392;29;20064;-79
2022/11/21 16:29:04;;;;;;;20.05;8.50;;;;;;;;;;4836915;29;20061;-79
2022/11/21 16:31:30;;;;;;;21.30;8.32;;;;;;;;;;4850074;29;20093;-79
2022/11/21 16:33:58;;;;;;;22.50;8.38;;;;;;;;;;4864552;29;20135;-79
2022/11/21 16:36:25;;;;;;;21.85;8.77;;;;;;;;;;4876242;29;20285;-78
2022/11/21 16:38:52;;;;;;;20.45;8.55;;;;;;;;;;4863038;29;20185;-78
2022/11/21 16:41:20;;;;;;;19.70;8.68;;;;;;;;;;4853475;29;20062;-78
2022/11/21 16:43:47;;;;;;;20.38;9.02;;;;;;;;;;4861256;29;20057;-78
2022/11/21 16:46:15;;;;;;;21.27;8.48;;;;;;;;;;4861874;29;20057;-79
2022/11/21 16:48:42;;;;;;;19.95;7.78;;;;;;;;;;4889437;29;20064;-79
2022/11/21 16:51:10;;;;;;;18.38;8.10;;;;;;;;;;4858534;29;20057;-77
2022/11/21 16:53:37;;;;;;;21.65;8.57;;;;;;;;;;4849570;29;20135;-79
2022/11/21 16:56:03;;;;;;;20.50;8.27;;;;;;;;;;4855041;29;20063;-79
2022/11/21 16:58:30;;;;;;;22.25;8.23;;;;;;;;;;4864086;29;20054;-79
2022/11/21 17:00:57;;;;;;;21.80;8.40;;;;;;;;;;4867597;29;20218;-77
2022/11/21 17:03:24;;;;;;;16.98;7.85;;;;;;;;;;4873147;29;20120;-78
2022/11/21 17:05:59;;;;;;;18.48;7.05;;;;;;;;;;4853529;29;20057;-78
2022/11/21 17:08:29;;;;;;;20.50;7.32;;;;;;;;;;4870397;29;20069;-78
2022/11/21 17:10:55;;;;;;;15.23;7.43;;;;;;;;;;4871628;29;20136;-78
2022/11/21 17:13:22;;;;;;;23.70;8.35;;;;;;;;;;4858801;29;20065;-78
2022/11/21 17:15:48;;;;;;;16.77;7.53;;;;;;;;;;4872851;29;20118;-78
2022/11/21 17:18:14;;;;;;;20.27;7.88;;;;;;;;;;4867858;29;20057;-79
2022/11/21 17:20:40;;;;;;;20.45;7.97;;;;;;;;;;4855761;29;20148;-78
2022/11/21 17:23:07;;;;;;;18.98;7.18;;;;;;;;;;4867987;29;20063;-78
2022/11/21 17:25:33;;;;;;;19.27;7.82;;;;;;;;;;4848345;29;20140;-78
2022/11/21 17:27:59;;;;;;;18.77;8.48;;;;;;;;;;4856412;29;20061;-78
2022/11/21 17:30:26;;;;;;;17.52;7.97;;;;;;;;;;4857104;29;20045;-78
2022/11/21 17:32:52;;;;;;;16.33;7.45;;;;;;;;;;4875298;29;20661;-78
2022/11/21 17:35:18;;;;;;;21.90;8.40;;;;;;;;;;4872717;29;20201;-77
2022/11/21 17:37:45;;;;;;;20.60;8.48;;;;;;;;;;4842451;29;20058;-78
2022/11/21 17:40:15;;;;;;;18.60;7.40;;;;;;;;;;4871560;29;20071;-77
2022/11/21 17:42:42;;;;;;;18.77;8.88;;;;;;;;;;4853255;29;20072;-78
2022/11/21 17:45:08;;;;;;;15.77;7.88;;;;;;;;;;4847899;29;20141;-78
2022/11/21 17:47:35;;;;;;;15.65;6.70;;;;;;;;;;4835487;29;20069;-77
2022/11/21 17:50:01;;;;;;;18.20;6.78;;;;;;;;;;4859930;29;20509;-78
2022/11/21 17:52:31;;;;;;;15.10;7.15;;;;;;;;;;4868349;29;20109;-79
2022/11/21 17:54:58;;;;;;;12.50;6.22;;;;;;;;;;4871784;29;20058;-78
2022/11/21 17:57:24;;;;;;;17.27;6.57;;;;;;;;;;4883521;29;20061;-77
2022/11/21 17:59:51;;;;;;;16.38;7.30;;;;;;;;;;4865268;29;20088;-78
2022/11/21 18:02:19;;;;;;;12.60;6.07;;;;;;;;;;4871193;29;20060;-78
2022/11/21 18:04:46;;;;;;;14.95;6.80;;;;;;;;;;4865877;29;20109;-79
2022/11/21 18:07:12;;;;;;;16.70;6.00;;;;;;;;;;4887708;29;20057;-78
2022/11/21 18:09:39;;;;;;;17.75;6.05;;;;;;;;;;4870743;29;20057;-78
2022/11/21 18:12:05;;;;;;;14.10;6.95;;;;;;;;;;4872229;29;20152;-79
2022/11/21 18:14:31;;;;;;;13.85;6.60;;;;;;;;;;4892314;29;20057;-78
2022/11/21 18:17:00;;;;;;;15.35;6.53;;;;;;;;;;4871407;29;20172;-78
2022/11/21 18:19:27;;;;;;;14.95;6.22;;;;;;;;;;4885419;29;20075;-77
2022/11/21 18:21:53;;;;;;;14.35;5.93;;;;;;;;;;4882299;29;20079;-77
2022/11/21 18:24:20;;;;;;;15.68;6.45;;;;;;;;;;4883631;29;20052;-78
2022/11/21 18:26:46;;;;;;;20.73;7.68;;;;;;;;;;4889501;29;20085;-77
2022/11/21 18:29:13;;;;;;;15.63;6.40;;;;;;;;;;4861568;29;20521;-79
2022/11/21 18:31:59;;;;;;;18.90;7.20;;;;;;;;;;4880813;29;20057;-78
2022/11/21 18:34:26;;;;;;;14.07;6.90;;;;;;;;;;4868922;29;20132;-77
2022/11/21 18:36:52;;;;;;;13.32;6.55;;;;;;;;;;4872865;29;20057;-78
2022/11/21 18:39:21;;;;;;;15.02;6.05;;;;;;;;;;4883402;29;20057;-77
2022/11/21 18:41:49;;;;;;;18.40;6.38;;;;;;;;;;4870727;29;20443;-78
2022/11/21 18:44:15;;;;;;;13.57;5.93;;;;;;;;;;4872440;29;20057;-78
2022/11/21 18:46:47;;;;;;;20.58;6.57;;;;;;;;;;4883343;29;20057;-79
2022/11/21 18:49:13;;;;;;;20.92;7.22;;;;;;;;;;4885774;29;20068;-78
2022/11/21 18:51:43;;;;;;;21.75;6.15;;;;;;;;;;4887896;29;20060;-78
2022/11/21 18:54:10;;;;;;;16.02;6.05;;;;;;;;;;4875193;29;20067;-77
2022/11/21 18:56:37;;;;;;;20.08;6.68;;;;;;;;;;4892322;29;20068;-76
2022/11/21 18:59:07;;;;;;;14.82;6.20;;;;;;;;;;4889398;29;20139;-77
2022/11/21 19:01:34;;;;;;;15.88;6.35;;;;;;;;;;4866988;29;20057;-77
2022/11/21 19:04:01;;;;;;;12.18;6.55;;;;;;;;;;4884333;29;20475;-78
2022/11/21 19:06:28;;;;;;;11.60;5.70;;;;;;;;;;4871992;29;20168;-77
2022/11/21 19:08:55;;;;;;;12.82;5.50;;;;;;;;;;4870521;29;20257;-78
2022/11/21 19:11:23;;;;;;;15.43;5.57;;;;;;;;;;4863724;29;20063;-77
2022/11/21 19:13:50;;;;;;;12.65;5.70;;;;;;;;;;4872187;29;20061;-77
2022/11/21 19:16:18;;;;;;;15.27;5.22;;;;;;;;;;4872287;29;20542;-77
2022/11/21 19:18:44;;;;;;;15.57;5.63;;;;;;;;;;4867563;29;20418;-78
2022/11/21 19:21:33;;;;;;;17.17;5.82;;;;;;;;;;4858492;29;20296;-78
2022/11/21 19:24:00;;;;;;;13.32;5.03;;;;;;;;;;4878098;29;20083;-78
2022/11/21 19:26:27;;;;;;;16.20;5.95;;;;;;;;;;4890882;29;20061;-77
2022/11/21 19:28:54;;;;;;;17.30;5.32;;;;;;;;;;4870332;29;20062;-79
2022/11/21 19:31:20;;;;;;;15.30;5.40;;;;;;;;;;4871180;29;20053;-77
2022/11/21 19:33:47;;;;;;;13.23;5.32;;;;;;;;;;4883650;29;20069;-77
2022/11/21 19:36:17;;;;;;;11.05;4.75;;;;;;;;;;4869272;29;20064;-78
2022/11/21 19:38:45;;;;;;;10.90;5.22;;;;;;;;;;4888856;29;20083;-78
2022/11/21 19:41:18;;;;;;;14.82;5.15;;;;;;;;;;4864004;29;20061;-78
2022/11/21 19:43:49;;;;;;;14.45;6.25;;;;;;;;;;4870768;29;20057;-77
2022/11/21 19:46:20;;;;;;;15.63;6.25;;;;;;;;;;4880110;29;20071;-77
2022/11/21 19:48:46;;;;;;;10.57;4.82;;;;;;;;;;4886590;29;20117;-77
2022/11/21 19:51:13;;;;;;;14.82;5.95;;;;;;;;;;4886979;29;20555;-78
2022/11/21 19:53:39;;;;;;;12.50;5.50;;;;;;;;;;4861418;29;20053;-77
2022/11/21 19:56:10;;;;;;;16.33;6.22;;;;;;;;;;4885162;29;20058;-77
2022/11/21 19:58:36;;;;;;;15.25;5.57;;;;;;;;;;4880908;29;20700;-76
2022/11/21 20:01:07;;;;;;;13.63;5.45;;;;;;;;;;4871685;29;20178;-77
2022/11/21 20:03:34;;;;;;;16.65;7.28;;;;;;;;;;4847318;29;20057;-77
2022/11/21 20:06:04;;;;;;;14.80;6.30;;;;;;;;;;4861912;29;20186;-77
2022/11/21 20:08:31;;;;;;;11.27;5.40;;;;;;;;;;4872088;29;20513;-78
2022/11/21 20:11:04;;;;;;;19.20;6.00;;;;;;;;;;4854155;29;20842;-78
2022/11/21 20:13:31;;;;;;;14.57;6.18;;;;;;;;;;4843641;29;20064;-78
2022/11/21 20:15:59;;;;;;;14.98;6.32;;;;;;;;;;4871089;29;20065;-77
2022/11/21 20:18:25;;;;;;;20.17;6.25;;;;;;;;;;4859442;29;20148;-77
2022/11/21 20:20:52;;;;;;;12.75;6.28;;;;;;;;;;4867379;29;20057;-79
2022/11/21 20:23:18;;;;;;;18.10;6.05;;;;;;;;;;4837318;29;20056;-79
2022/11/21 20:25:48;;;;;;;16.25;5.68;;;;;;;;;;4872240;29;20501;-79
2022/11/21 20:28:14;;;;;;;21.37;6.67;;;;;;;;;;4872965;29;20085;-80
2022/11/21 20:30:41;;;;;;;16.75;6.63;;;;;;;;;;4869887;29;20279;-78
2022/11/21 20:33:07;;;;;;;12.63;6.15;;;;;;;;;;4853880;29;20118;-78
2022/11/21 20:35:38;;;;;;;16.23;6.15;;;;;;;;;;4855344;29;20673;-78
2022/11/21 20:38:04;;;;;;;17.45;6.75;;;;;;;;;;4871209;29;20061;-78
2022/11/21 20:40:30;;;;;;;14.30;6.03;;;;;;;;;;4871796;29;20743;-77
2022/11/21 20:42:57;;;;;;;15.38;6.25;;;;;;;;;;4869406;29;20069;-78
2022/11/21 20:45:23;;;;;;;15.00;6.35;;;;;;;;;;4868264;29;20096;-78
2022/11/21 20:48:10;;;;;;;14.98;6.25;;;;;;;;;;4868665;29;20069;-78
2022/11/21 20:51:02;;;;;;;14.77;6.50;;;;;;;;;;4849179;29;20053;-78
2022/11/21 20:53:48;;;;;;;19.85;6.95;;;;;;;;;;4845227;29;20509;-78
2022/11/21 20:56:19;;;;;;;;;;;;;;;;;;4871798;29;20106;-78
2022/11/21 20:58:46;;;;;;;15.25;5.72;;;;;;;;;;4870189;29;47315;-78
2022/11/21 21:01:13;;;;;;;16.25;6.57;;;;;;;;;;4855529;29;20839;-78
2022/11/21 21:03:40;;;;;;;15.43;6.25;;;;;;;;;;4848794;29;20041;-77
2022/11/21 21:06:08;;;;;;;17.70;6.45;;;;;;;;;;4852776;29;20563;-78
2022/11/21 21:08:34;;;;;;;15.20;5.97;;;;;;;;;;4846952;29;20061;-77
2022/11/21 21:11:01;;;;;;;16.48;6.20;;;;;;;;;;4867958;29;20112;-77
2022/11/21 21:13:32;;;;;;;13.90;5.50;;;;;;;;;;4854397;29;20752;-78
2022/11/21 21:16:02;;;;;;;12.60;5.72;;;;;;;;;;4871826;29;20584;-77
2022/11/21 21:18:30;;;;;;;13.80;5.55;;;;;;;;;;4852876;29;20054;-78
2022/11/21 21:21:23;;;;;;;14.35;5.85;;;;;;;;;;4868664;29;20065;-77
2022/11/21 21:23:57;;;;;;;15.98;6.38;;;;;;;;;;4869010;29;20093;-78
2022/11/21 21:26:25;;;;;;;12.27;5.45;;;;;;;;;;4869488;29;20093;-77
2022/11/21 21:28:52;;;;;;;15.45;5.80;;;;;;;;;;4851107;29;20069;-79
2022/11/21 21:31:19;;;;;;;13.88;6.25;;;;;;;;;;4870820;29;20068;-78
2022/11/21 21:33:46;;;;;;;20.27;5.30;;;;;;;;;;4873001;29;20072;-80
2022/11/21 21:36:13;;;;;;;17.33;5.80;;;;;;;;;;4863626;29;20065;-78
2022/11/21 21:38:40;;;;;;;13.02;5.25;;;;;;;;;;4858575;29;20123;-78
2022/11/21 21:41:08;;;;;;;15.02;6.10;;;;;;;;;;4871310;29;20576;-79
2022/11/21 21:43:35;;;;;;;16.30;5.57;;;;;;;;;;4845426;29;20057;-79
2022/11/21 21:46:09;;;;;;;17.23;5.70;;;;;;;;;;4842301;29;20061;-79
2022/11/21 21:48:36;;;;;;;11.95;5.50;;;;;;;;;;4852981;29;20049;-79
2022/11/21 21:51:06;;;;;;;17.52;6.00;;;;;;;;;;4863088;29;20054;-79
2022/11/21 21:53:36;;;;;;;16.15;5.57;;;;;;;;;;4855065;29;20053;-78
2022/11/21 21:56:04;;;;;;;18.77;5.47;;;;;;;;;;4853181;29;20149;-79
2022/11/21 21:58:31;;;;;;;17.58;5.50;;;;;;;;;;4853932;29;20038;-78
2022/11/21 22:01:21;;;;;;;17.73;6.80;;;;;;;;;;4841983;29;20098;-79
2022/11/21 22:03:50;;;;;;;15.32;5.32;;;;;;;;;;4858291;29;20118;-79
2022/11/21 22:06:17;;;;;;;12.63;4.93;;;;;;;;;;4855453;29;20064;-79
2022/11/21 22:08:45;;;;;;;15.57;5.70;;;;;;;;;;4854038;29;20142;-80
2022/11/21 22:11:18;;;;;;;20.10;5.93;;;;;;;;;;4871236;29;20054;-79
2022/11/21 22:13:45;;;;;;;14.30;5.43;;;;;;;;;;4843246;29;20081;-79
2022/11/21 22:16:12;;;;;;;13.40;5.57;;;;;;;;;;4857133;29;20216;-79
2022/11/21 22:18:39;;;;;;;16.75;5.95;;;;;;;;;;4852197;29;20054;-78
2022/11/21 22:21:11;;;;;;;18.58;5.43;;;;;;;;;;4872271;29;20080;-78
2022/11/21 22:23:37;;;;;;;17.23;5.97;;;;;;;;;;4855488;29;20544;-78
2022/11/21 22:26:24;;;;;;;16.55;5.50;;;;;;;;;;4856180;29;20121;-78
2022/11/21 22:28:50;;;;;;;15.07;5.75;;;;;;;;;;4871004;29;20053;-79
2022/11/21 22:31:17;;;;;;;16.70;5.47;;;;;;;;;;4855891;29;20054;-78
2022/11/21 22:33:44;;;;;;;14.77;5.25;;;;;;;;;;4854016;29;20050;-78
2022/11/21 22:36:15;;;;;;;17.30;5.18;;;;;;;;;;4859683;29;20057;-78
2022/11/21 22:38:41;;;;;;;15.63;5.55;;;;;;;;;;4872143;29;20311;-78
2022/11/21 22:41:14;;;;;;;15.60;4.57;;;;;;;;;;4872917;29;20720;-78
2022/11/21 22:43:40;;;;;;;14.38;4.63;;;;;;;;;;4853941;29;20065;-78
2022/11/21 22:46:08;;;;;;;14.43;4.45;;;;;;;;;;4855625;29;20053;-78
2022/11/21 22:48:35;;;;;;;19.35;5.80;;;;;;;;;;4839576;29;20053;-78
2022/11/21 22:51:01;;;;;;;12.88;4.50;;;;;;;;;;4873914;29;20152;-79
2022/11/21 22:53:28;;;;;;;12.32;4.05;;;;;;;;;;4872638;29;20057;-78
2022/11/21 22:55:58;;;;;;;14.88;4.68;;;;;;;;;;4869686;29;20507;-79
2022/11/21 22:58:27;;;;;;;17.05;4.53;;;;;;;;;;4862300;29;20056;-78
2022/11/21 23:01:06;;;;;;;15.20;4.22;;;;;;;;;;4873908;29;20099;-79
2022/11/21 23:03:33;;;;;;;10.57;4.18;;;;;;;;;;4886072;29;20057;-78
2022/11/21 23:06:00;;;;;;;12.30;4.25;;;;;;;;;;4856263;29;20800;-79
2022/11/21 23:08:26;;;;;;;16.02;4.78;;;;;;;;;;4855283;29;20064;-77
2022/11/21 23:10:53;;;;;;;14.35;4.57;;;;;;;;;;4860359;29;20053;-79
2022/11/21 23:13:19;;;;;;;14.85;4.10;;;;;;;;;;4872821;29;20513;-79
2022/11/21 23:15:46;;;;;;;12.18;4.72;;;;;;;;;;4891298;29;20524;-78
2022/11/21 23:18:12;;;;;;;20.58;4.70;;;;;;;;;;4890075;29;20057;-78
2022/11/21 23:20:41;;;;;;;15.18;4.18;;;;;;;;;;4888763;29;20064;-78
2022/11/21 23:23:07;;;;;;;11.50;4.18;;;;;;;;;;4873249;29;20109;-78
2022/11/21 23:25:33;;;;;;;15.35;4.32;;;;;;;;;;4887839;29;20170;-79
2022/11/21 23:28:00;;;;;;;16.67;5.13;;;;;;;;;;4880722;29;20050;-78
2022/11/21 23:30:26;;;;;;;15.88;5.68;;;;;;;;;;4888580;29;20052;-79
2022/11/21 23:32:52;;;;;;;15.02;5.85;;;;;;;;;;4875693;29;20136;-79
2022/11/21 23:35:19;;;;;;;21.65;6.13;;;;;;;;;;4874014;29;20064;-78
2022/11/21 23:37:45;;;;;;;21.73;6.78;;;;;;;;;;4883863;29;20068;-78
2022/11/21 23:40:11;;;;;;;15.30;6.20;;;;;;;;;;4879432;29;20073;-78
2022/11/21 23:42:38;;;;;;;16.17;6.70;;;;;;;;;;4865988;29;20049;-79
2022/11/21 23:45:04;;;;;;;16.13;6.35;;;;;;;;;;4891772;29;20487;-78
2022/11/21 23:47:31;;;;;;;22.25;6.70;;;;;;;;;;4894744;29;20065;-79
2022/11/21 23:49:57;;;;;;;19.55;6.60;;;;;;;;;;4876567;29;20789;-78
2022/11/21 23:52:23;;;;;;;17.13;6.57;;;;;;;;;;4876711;29;20039;-79
2022/11/21 23:54:50;;;;;;;18.70;6.95;;;;;;;;;;4869243;29;20164;-78
2022/11/21 23:57:16;;;;;;;20.35;6.97;;;;;;;;;;4859438;29;20053;-78
2022/11/21 23:59:43;;;;;;;16.42;6.20;;;;;;;;;;4854622;29;20065;-79
